createdAt,value
2023-02-28T00:00:11.676Z,80.87
2023-02-28T00:02:43.467Z,99.93
2023-02-28T00:05:14.318Z,105.73
2023-02-28T00:07:43.880Z,114.80
2023-02-28T00:10:14.514Z,123.23
2023-02-28T00:12:44.130Z,100.47
2023-02-28T00:15:13.826Z,82.17
2023-02-28T00:17:48.674Z,67.17
2023-02-28T00:20:18.477Z,47.17
2023-02-28T00:22:48.714Z,40.73
2023-02-28T00:25:19.198Z,65.27
2023-02-28T00:27:49.155Z,72.33
2023-02-28T00:30:20.770Z,70.67
2023-02-28T00:32:51.453Z,84.53
2023-02-28T00:35:20.692Z,85.47
2023-02-28T00:37:51.072Z,94.90
2023-02-28T00:40:20.100Z,120.23
2023-02-28T00:42:49.083Z,108.23
2023-02-28T00:45:18.131Z,136.57
2023-02-28T00:47:47.676Z,106.50
2023-02-28T00:50:20.120Z,83.43
2023-02-28T00:52:49.215Z,83.57
2023-02-28T00:55:19.761Z,82.63
2023-02-28T00:57:48.716Z,82.70
2023-02-28T01:00:18.254Z,84.10
2023-02-28T01:02:47.239Z,74.03
2023-02-28T01:05:17.182Z,88.70
2023-02-28T01:07:49.312Z,69.80
2023-02-28T01:10:18.859Z,78.83
2023-02-28T01:12:47.670Z,79.37
2023-02-28T01:15:18.616Z,116.23
2023-02-28T01:17:47.605Z,116.17
2023-02-28T01:20:17.285Z,190.87
2023-02-28T01:22:46.309Z,186.23
2023-02-28T01:25:16.957Z,98.53
2023-02-28T01:27:46.682Z,96.33
2023-02-28T01:30:15.951Z,58.97
2023-02-28T01:33:03.607Z,50.90
2023-02-28T01:35:35.831Z,59.47
2023-02-28T01:38:20.824Z,58.43
2023-02-28T01:40:52.198Z,67.50
2023-02-28T01:43:25.377Z,97.37
2023-02-28T01:45:55.182Z,95.73
2023-02-28T01:48:28.435Z,112.50
2023-02-28T01:51:01.041Z,99.03
2023-02-28T01:53:39.240Z,87.10
2023-02-28T01:56:13.096Z,83.77
2023-02-28T01:58:42.960Z,81.27
2023-02-28T02:01:22.716Z,97.13
2023-02-28T02:04:03.900Z,97.60
2023-02-28T02:06:40.708Z,96.87
2023-02-28T02:09:14.354Z,103.13
2023-02-28T02:12:00.308Z,96.30
2023-02-28T02:14:54.436Z,118.17
2023-02-28T02:17:32.091Z,131.43
2023-02-28T02:20:30.021Z,128.17
2023-02-28T02:23:27.941Z,109.40
2023-02-28T02:25:59.085Z,99.63
2023-02-28T02:29:03.641Z,96.67
2023-02-28T02:32:02.381Z,77.80
2023-02-28T02:34:48.736Z,79.67
2023-02-28T02:37:30.390Z,82.23
2023-02-28T02:40:06.599Z,73.97
2023-02-28T02:42:43.832Z,65.10
2023-02-28T02:45:17.308Z,58.37
2023-02-28T02:47:47.721Z,60.60
2023-02-28T02:50:23.719Z,57.17
2023-02-28T02:52:58.496Z,47.73
2023-02-28T02:55:28.200Z,49.10
2023-02-28T02:58:01.167Z,55.17
2023-02-28T03:00:39.865Z,55.63
2023-02-28T03:03:11.909Z,179.33
2023-02-28T03:05:48.383Z,68.50
2023-02-28T03:08:18.479Z,74.20
2023-02-28T03:10:50.800Z,62.43
2023-02-28T03:13:57.261Z,70.03
2023-02-28T03:16:35.918Z,98.07
2023-02-28T03:19:26.398Z,117.27
2023-02-28T03:22:12.158Z,79.93
2023-02-28T03:24:48.270Z,103.87
2023-02-28T03:27:23.761Z,94.07
2023-02-28T03:29:59.920Z,98.63
2023-02-28T03:32:32.218Z,128.17
2023-02-28T03:35:07.709Z,131.70
2023-02-28T03:37:43.374Z,164.43
2023-02-28T03:40:35.777Z,165.93
2023-02-28T03:43:10.218Z,225.60
2023-02-28T03:45:42.177Z,236.07
2023-02-28T03:48:17.566Z,237.93
2023-02-28T03:50:50.401Z,194.73
2023-02-28T03:53:23.851Z,189.10
2023-02-28T03:55:56.730Z,182.73
2023-02-28T03:58:30.807Z,176.13
2023-02-28T04:01:09.278Z,150.93
2023-02-28T04:03:38.776Z,164.13
2023-02-28T04:06:10.027Z,168.47
2023-02-28T04:08:40.409Z,221.07
2023-02-28T04:11:34.848Z,186.17
2023-02-28T04:14:03.883Z,141.53
2023-02-28T04:16:35.625Z,119.97
2023-02-28T04:19:06.403Z,99.30
2023-02-28T04:21:40.183Z,59.47
2023-02-28T04:24:15.474Z,48.93
2023-02-28T04:26:46.677Z,39.73
2023-02-28T04:29:20.330Z,28.87
2023-02-28T04:31:49.672Z,30.10
2023-02-28T04:34:20.149Z,34.40
2023-02-28T04:36:59.628Z,30.20
2023-02-28T04:39:39.884Z,32.60
2023-02-28T04:42:09.035Z,31.40
2023-02-28T04:44:37.919Z,30.53
2023-02-28T04:47:06.828Z,35.23
2023-02-28T04:49:35.690Z,36.90
2023-02-28T04:52:04.753Z,39.47
2023-02-28T04:54:33.632Z,35.70
2023-02-28T04:57:05.635Z,43.80
2023-02-28T04:59:34.856Z,44.30
2023-02-28T05:02:13.708Z,45.30
2023-02-28T05:04:45.431Z,48.97
2023-02-28T05:07:14.616Z,32.90
2023-02-28T05:09:43.407Z,35.53
2023-02-28T05:12:13.793Z,31.77
2023-02-28T05:14:42.782Z,34.30
2023-02-28T05:17:26.011Z,32.70
2023-02-28T05:20:01.041Z,31.00
2023-02-28T05:22:35.570Z,31.40
2023-02-28T05:25:04.575Z,29.40
2023-02-28T05:27:35.133Z,27.97
2023-02-28T05:30:05.648Z,26.87
2023-02-28T05:32:34.624Z,31.47
2023-02-28T05:35:03.649Z,30.43
2023-02-28T05:37:32.510Z,28.33
2023-02-28T05:40:01.509Z,31.83
2023-02-28T05:42:30.464Z,34.70
2023-02-28T05:45:03.184Z,28.10
2023-02-28T05:47:32.166Z,30.17
2023-02-28T05:50:01.226Z,37.00
2023-02-28T05:52:31.115Z,35.80
2023-02-28T05:55:00.183Z,37.00
2023-02-28T05:57:29.064Z,35.30
2023-02-28T05:59:57.979Z,38.43
2023-02-28T06:02:28.431Z,85.37
2023-02-28T06:04:57.409Z,56.17
2023-02-28T06:07:26.211Z,33.07
2023-02-28T06:09:55.107Z,55.87
2023-02-28T06:12:24.068Z,38.00
2023-02-28T06:14:53.376Z,36.57
2023-02-28T06:17:22.754Z,58.67
2023-02-28T06:20:01.880Z,83.57
2023-02-28T06:22:32.677Z,67.13
2023-02-28T06:25:02.353Z,70.10
2023-02-28T06:27:31.221Z,44.97
2023-02-28T06:30:00.346Z,48.00
2023-02-28T06:32:29.380Z,114.33
2023-02-28T06:34:59.683Z,68.70
2023-02-28T06:37:28.794Z,43.37
2023-02-28T06:39:58.184Z,105.13
2023-02-28T06:42:30.001Z,91.23
2023-02-28T06:45:00.352Z,53.20
2023-02-28T06:47:29.469Z,91.77
2023-02-28T06:49:59.731Z,158.60
2023-02-28T06:52:28.617Z,134.50
2023-02-28T06:55:02.304Z,123.40
2023-02-28T06:57:32.977Z,72.93
2023-02-28T07:00:02.406Z,85.00
2023-02-28T07:02:31.705Z,46.40
2023-02-28T07:05:02.081Z,57.27
2023-02-28T07:07:37.471Z,78.10
2023-02-28T07:10:07.199Z,93.47
2023-02-28T07:12:36.233Z,73.73
2023-02-28T07:15:05.365Z,81.13
2023-02-28T07:17:34.357Z,53.37
2023-02-28T07:20:06.343Z,69.50
2023-02-28T07:22:35.740Z,56.17
2023-02-28T07:25:04.694Z,37.00
2023-02-28T07:27:33.569Z,41.43
2023-02-28T07:30:04.805Z,43.73
2023-02-28T07:32:33.727Z,45.17
2023-02-28T07:35:04.086Z,54.53
2023-02-28T07:37:37.636Z,75.00
2023-02-28T07:40:09.688Z,53.27
2023-02-28T07:42:39.028Z,53.37
2023-02-28T07:45:09.475Z,75.70
2023-02-28T07:47:38.832Z,91.67
2023-02-28T07:50:11.052Z,113.60
2023-02-28T07:52:40.253Z,109.63
2023-02-28T07:55:12.168Z,39.10
2023-02-28T07:57:46.904Z,45.40
2023-02-28T08:00:17.668Z,46.63
2023-02-28T08:02:50.061Z,59.30
2023-02-28T08:05:22.252Z,49.97
2023-02-28T08:07:52.468Z,48.60
2023-02-28T08:10:21.517Z,56.67
2023-02-28T08:12:50.477Z,57.30
2023-02-28T08:15:23.684Z,53.07
2023-02-28T08:18:00.200Z,60.90
2023-02-28T08:20:32.235Z,80.30
2023-02-28T08:23:09.707Z,77.33
2023-02-28T08:25:43.392Z,55.13
2023-02-28T08:28:14.302Z,71.13
2023-02-28T08:31:02.515Z,84.10
2023-02-28T08:33:33.402Z,69.17
2023-02-28T08:36:04.317Z,72.13
2023-02-28T08:38:38.127Z,60.23
2023-02-28T08:41:10.496Z,77.50
2023-02-28T08:43:40.059Z,59.40
2023-02-28T08:46:10.798Z,62.33
2023-02-28T08:48:40.103Z,54.83
2023-02-28T08:51:12.787Z,44.57
2023-02-28T08:53:42.474Z,57.77
2023-02-28T08:56:13.390Z,70.83
2023-02-28T08:58:42.629Z,57.70
2023-02-28T09:01:15.110Z,69.73
2023-02-28T09:03:47.233Z,75.10
2023-02-28T09:06:18.997Z,99.73
2023-02-28T09:08:48.009Z,44.67
2023-02-28T09:11:24.477Z,33.87
2023-02-28T09:13:54.311Z,59.93
2023-02-28T09:16:23.631Z,51.77
2023-02-28T09:18:52.564Z,48.17
2023-02-28T09:21:22.833Z,50.17
2023-02-28T09:23:52.966Z,40.20
2023-02-28T09:26:24.675Z,42.73
2023-02-28T09:28:54.391Z,33.80
2023-02-28T09:31:25.749Z,55.00
2023-02-28T09:33:56.947Z,58.37
2023-02-28T09:36:41.831Z,39.83
2023-02-28T09:39:13.512Z,43.47
2023-02-28T09:41:52.072Z,40.73
2023-02-28T09:44:27.614Z,49.00
2023-02-28T09:47:00.916Z,34.20
2023-02-28T09:49:38.292Z,37.57
2023-02-28T09:52:13.387Z,28.90
2023-02-28T09:54:42.517Z,32.93
2023-02-28T09:57:20.185Z,30.93
2023-02-28T10:00:06.074Z,39.43
2023-02-28T10:02:54.430Z,47.70
2023-02-28T10:05:28.270Z,33.50
2023-02-28T10:08:06.321Z,43.10
2023-02-28T10:10:41.662Z,38.13
2023-02-28T10:13:20.100Z,35.83
2023-02-28T10:15:52.484Z,31.90
2023-02-28T10:18:27.044Z,33.70
2023-02-28T10:20:58.207Z,30.13
2023-02-28T10:23:31.228Z,24.17
2023-02-28T10:26:02.692Z,36.33
2023-02-28T10:28:33.486Z,29.30
2023-02-28T10:31:02.875Z,30.93
2023-02-28T10:33:33.930Z,26.60
2023-02-28T10:36:04.165Z,37.13
2023-02-28T10:38:38.622Z,43.70
2023-02-28T10:41:09.794Z,33.60
2023-02-28T10:43:40.372Z,44.27
2023-02-28T10:46:27.117Z,36.97
2023-02-28T10:49:07.942Z,37.27
2023-02-28T10:51:41.907Z,26.90
2023-02-28T10:54:21.112Z,27.83
2023-02-28T10:57:10.244Z,40.70
2023-02-28T10:59:39.348Z,37.17
2023-02-28T11:05:03.842Z,28.27
2023-02-28T11:07:41.463Z,29.23
2023-02-28T11:10:24.253Z,49.73
2023-02-28T11:12:58.710Z,37.80
2023-02-28T11:15:32.154Z,39.90
2023-02-28T11:18:04.807Z,43.13
2023-02-28T11:20:36.402Z,33.93
2023-02-28T11:23:07.454Z,59.60
2023-02-28T11:25:40.443Z,32.00
2023-02-28T11:28:29.647Z,36.37
2023-02-28T11:31:16.778Z,45.30
2023-02-28T11:33:51.361Z,34.57
2023-02-28T11:36:25.828Z,40.77
2023-02-28T11:38:56.490Z,48.83
2023-02-28T11:41:51.273Z,63.43
2023-02-28T11:44:36.469Z,58.87
2023-02-28T11:47:12.496Z,68.40
2023-02-28T11:49:48.830Z,32.13
2023-02-28T11:52:27.063Z,155.10
2023-02-28T11:55:16.440Z,61.17
2023-02-28T11:58:03.957Z,142.03
2023-02-28T12:00:42.903Z,64.37
2023-02-28T12:03:24.939Z,61.90
2023-02-28T12:06:03.299Z,138.70
2023-02-28T12:08:46.687Z,231.27
2023-02-28T12:11:22.196Z,32.87
2023-02-28T12:14:03.985Z,66.67
2023-02-28T12:16:47.294Z,117.07
2023-02-28T12:19:22.440Z,144.10
2023-02-28T12:22:05.982Z,148.97
2023-02-28T12:25:01.327Z,160.03
2023-02-28T12:27:34.528Z,233.03
2023-02-28T12:30:08.632Z,136.03
2023-02-28T12:32:41.638Z,166.33
2023-02-28T12:35:16.702Z,94.83
2023-02-28T12:37:50.395Z,55.03
2023-02-28T12:40:22.774Z,83.97
2023-02-28T12:42:55.194Z,125.67
2023-02-28T12:45:28.606Z,140.93
2023-02-28T12:48:04.142Z,65.70
2023-02-28T12:50:34.797Z,71.03
2023-02-28T12:53:11.598Z,190.80
2023-02-28T12:55:45.553Z,91.73
2023-02-28T12:58:23.248Z,146.27
2023-02-28T13:01:16.018Z,71.33
2023-02-28T13:04:16.482Z,35.23
2023-02-28T13:07:09.072Z,49.83
2023-02-28T13:09:39.374Z,45.90
2023-02-28T13:12:16.688Z,37.87
2023-02-28T13:14:46.239Z,34.57
2023-02-28T13:17:22.504Z,69.93
2023-02-28T13:20:01.790Z,73.93
2023-02-28T13:22:43.517Z,29.37
2023-02-28T13:25:55.885Z,47.23
2023-02-28T13:29:10.258Z,102.93
2023-02-28T13:32:16.192Z,108.53
2023-02-28T13:35:30.547Z,187.43
2023-02-28T13:38:24.141Z,22.03
2023-02-28T13:40:53.307Z,23.17
2023-02-28T13:43:34.619Z,36.77
2023-02-28T13:46:14.636Z,34.60
2023-02-28T13:48:44.333Z,60.20
2023-02-28T13:51:43.408Z,27.50
2023-02-28T13:54:36.874Z,32.23
2023-02-28T13:57:24.453Z,19.83
2023-02-28T14:00:06.722Z,40.97
2023-02-28T14:03:14.173Z,30.37
2023-02-28T14:05:43.755Z,25.83
2023-02-28T14:08:22.114Z,113.13
2023-02-28T14:10:53.227Z,83.33
2023-02-28T14:13:46.226Z,160.10
2023-02-28T14:16:17.811Z,115.10
2023-02-28T14:18:57.844Z,93.20
2023-02-28T14:21:29.942Z,182.67
2023-02-28T14:24:29.085Z,155.17
2023-02-28T14:27:17.786Z,114.60
2023-02-28T14:30:13.849Z,131.73
2023-02-28T14:32:50.675Z,49.13
2023-02-28T14:35:31.863Z,160.90
2023-02-28T14:38:00.996Z,170.77
2023-02-28T14:40:35.420Z,190.57
2023-02-28T14:43:06.290Z,188.90
2023-02-28T14:45:38.717Z,152.90
2023-02-28T14:48:12.390Z,201.80
2023-02-28T14:50:43.454Z,204.60
2023-02-28T14:53:20.652Z,112.17
2023-02-28T14:55:54.103Z,28.20
2023-02-28T14:58:27.048Z,39.40
2023-02-28T15:00:58.024Z,42.40
2023-02-28T15:03:36.713Z,50.37
2023-02-28T15:06:08.278Z,74.70
2023-02-28T15:08:37.569Z,87.40
2023-02-28T15:11:15.296Z,94.30
2023-02-28T15:13:47.490Z,51.83
2023-02-28T15:16:20.860Z,37.80
2023-02-28T15:18:53.750Z,39.03
2023-02-28T15:21:25.059Z,41.67
2023-02-28T15:23:57.559Z,40.37
2023-02-28T15:26:34.398Z,36.67
2023-02-28T15:29:06.871Z,37.90
2023-02-28T15:31:55.347Z,47.73
2023-02-28T15:34:36.978Z,55.40
2023-02-28T15:37:25.155Z,57.47
2023-02-28T15:39:55.384Z,55.97
2023-02-28T15:42:30.488Z,56.67
2023-02-28T15:45:00.847Z,62.30
2023-02-28T15:47:31.751Z,93.63
2023-02-28T15:50:03.168Z,74.93
2023-02-28T15:52:39.974Z,73.80
2023-02-28T15:55:14.967Z,48.23
2023-02-28T15:57:47.475Z,81.40
2023-02-28T16:00:21.132Z,72.13
2023-02-28T16:02:51.559Z,77.70
2023-02-28T16:05:33.076Z,83.93
2023-02-28T16:08:05.060Z,146.87
2023-02-28T16:10:34.373Z,144.87
2023-02-28T16:13:05.693Z,160.67
2023-02-28T16:15:42.711Z,112.07
2023-02-28T16:18:14.259Z,108.40
2023-02-28T16:20:45.571Z,71.33
2023-02-28T16:23:14.619Z,80.13
2023-02-28T16:25:47.184Z,57.83
2023-02-28T16:28:22.773Z,48.90
2023-02-28T16:30:54.079Z,64.30
2023-02-28T16:33:24.851Z,71.40
2023-02-28T16:35:55.844Z,49.40
2023-02-28T16:38:26.483Z,38.43
2023-02-28T16:40:59.045Z,50.77
2023-02-28T16:43:35.318Z,45.60
2023-02-28T16:46:04.912Z,39.27
2023-02-28T16:48:33.814Z,46.90
2023-02-28T16:51:05.479Z,46.80
2023-02-28T16:53:37.461Z,41.57
2023-02-28T16:56:08.148Z,40.70
2023-02-28T16:58:38.609Z,43.17
2023-02-28T17:01:08.126Z,32.37
2023-02-28T17:03:37.959Z,36.53
2023-02-28T17:06:08.596Z,29.97
2023-02-28T17:08:37.638Z,36.90
2023-02-28T17:11:06.745Z,41.90
2023-02-28T17:13:35.897Z,148.67
2023-02-28T17:16:06.909Z,167.43
2023-02-28T17:18:36.043Z,147.73
2023-02-28T17:21:04.990Z,206.57
2023-02-28T17:23:34.151Z,125.83
2023-02-28T17:26:03.553Z,185.90
2023-02-28T17:28:32.984Z,169.50
2023-02-28T17:31:01.983Z,144.27
2023-02-28T17:33:32.330Z,132.47
2023-02-28T17:36:01.425Z,138.87
2023-02-28T17:38:30.292Z,150.53
2023-02-28T17:40:59.368Z,152.13
2023-02-28T17:43:28.516Z,119.90
2023-02-28T17:45:59.423Z,146.83
2023-02-28T17:48:29.611Z,118.93
2023-02-28T17:51:01.224Z,59.27
2023-02-28T17:53:30.145Z,50.83
2023-02-28T17:55:59.373Z,34.03
2023-02-28T17:58:28.702Z,46.87
2023-02-28T18:00:57.593Z,94.30
2023-02-28T18:03:27.121Z,70.93
2023-02-28T18:05:58.242Z,40.03
2023-02-28T18:08:28.720Z,35.23
2023-02-28T18:10:57.756Z,168.10
2023-02-28T18:13:28.909Z,157.57
2023-02-28T18:15:57.971Z,186.43
2023-02-28T18:18:26.900Z,209.83
2023-02-28T18:20:55.815Z,197.53
2023-02-28T18:23:24.764Z,152.50
2023-02-28T18:25:57.397Z,152.20
2023-02-28T18:28:29.266Z,56.30
2023-02-28T18:30:58.925Z,75.23
2023-02-28T18:33:28.062Z,115.73
2023-02-28T18:36:00.417Z,43.90
2023-02-28T18:38:31.809Z,30.47
2023-02-28T18:41:05.190Z,36.77
2023-02-28T18:43:36.438Z,30.67
2023-02-28T18:46:12.669Z,32.70
2023-02-28T18:48:42.541Z,30.97
2023-02-28T18:51:14.236Z,29.23
2023-02-28T18:53:45.904Z,27.47
2023-02-28T18:56:19.688Z,25.83
2023-02-28T18:59:02.000Z,31.43
2023-02-28T19:01:33.907Z,44.30
2023-02-28T19:04:04.157Z,39.47
2023-02-28T19:06:35.642Z,31.57
2023-02-28T19:09:06.086Z,29.30
2023-02-28T19:11:37.172Z,24.70
2023-02-28T19:14:06.606Z,24.43
2023-02-28T19:16:39.225Z,33.83
2023-02-28T19:19:09.589Z,27.50
2023-02-28T19:21:40.534Z,32.97
2023-02-28T19:24:10.284Z,35.00
2023-02-28T19:26:41.364Z,29.47
2023-02-28T19:29:11.284Z,36.90
2023-02-28T19:31:40.979Z,46.07
2023-02-28T19:34:10.372Z,51.80
2023-02-28T19:36:39.577Z,53.50
2023-02-28T19:39:09.030Z,49.10
2023-02-28T19:41:39.936Z,41.30
2023-02-28T19:44:27.889Z,49.60
2023-02-28T19:46:56.783Z,50.97
2023-02-28T19:49:26.090Z,46.73
2023-02-28T19:51:56.626Z,49.63
2023-02-28T19:54:26.520Z,50.00
2023-02-28T19:56:58.606Z,49.23
2023-02-28T19:59:38.131Z,48.40
2023-02-28T20:02:08.565Z,54.60
2023-02-28T20:04:37.601Z,53.63
2023-02-28T20:07:06.789Z,56.53
2023-02-28T20:09:35.814Z,57.37
2023-02-28T20:12:09.303Z,66.10
2023-02-28T20:14:43.648Z,80.70
2023-02-28T20:17:12.513Z,68.67
2023-02-28T20:19:41.686Z,61.60
2023-02-28T20:22:12.441Z,55.57
2023-02-28T20:24:42.351Z,54.70
2023-02-28T20:27:12.905Z,52.10
2023-02-28T20:29:42.761Z,52.87
2023-02-28T20:32:14.239Z,58.30
2023-02-28T20:34:45.856Z,53.63
2023-02-28T20:37:14.941Z,55.17
2023-02-28T20:39:43.932Z,53.73
2023-02-28T20:42:14.417Z,52.30
2023-02-28T20:44:43.650Z,60.87
2023-02-28T20:47:12.567Z,59.40
2023-02-28T20:49:41.734Z,54.17
2023-02-28T20:52:10.857Z,55.93
2023-02-28T20:54:39.751Z,55.90
2023-02-28T20:57:10.211Z,55.80
2023-02-28T20:59:42.189Z,51.23
2023-02-28T21:02:15.899Z,58.67
2023-02-28T21:04:45.062Z,51.27
2023-02-28T21:07:13.925Z,57.47
2023-02-28T21:09:43.218Z,54.37
2023-02-28T21:12:12.090Z,59.83
2023-02-28T21:14:42.374Z,55.17
2023-02-28T21:17:11.878Z,52.10
2023-02-28T21:19:40.722Z,52.07
2023-02-28T21:22:09.717Z,56.03
2023-02-28T21:24:39.480Z,58.07
2023-02-28T21:27:08.577Z,56.20
2023-02-28T21:29:37.557Z,57.20
2023-02-28T21:32:08.799Z,56.30
2023-02-28T21:34:40.466Z,55.40
2023-02-28T21:37:10.308Z,53.00
2023-02-28T21:39:39.533Z,56.60
2023-02-28T21:42:11.596Z,56.37
2023-02-28T21:44:40.623Z,56.27
2023-02-28T21:47:11.070Z,57.00
2023-02-28T21:49:43.650Z,57.23
2023-02-28T21:52:12.636Z,66.57
2023-02-28T21:54:46.503Z,63.10
2023-02-28T21:57:20.990Z,68.23
2023-02-28T21:59:50.183Z,63.40
2023-02-28T22:02:20.644Z,76.87
2023-02-28T22:04:49.716Z,70.40
2023-02-28T22:07:18.533Z,77.57
2023-02-28T22:09:47.504Z,75.90
2023-02-28T22:12:16.657Z,91.53
2023-02-28T22:14:46.325Z,82.67
2023-02-28T22:17:15.233Z,73.47
2023-02-28T22:19:45.693Z,79.23
2023-02-28T22:22:14.740Z,72.70
2023-02-28T22:24:43.691Z,85.20
2023-02-28T22:27:12.496Z,81.53
2023-02-28T22:29:41.715Z,98.27
2023-02-28T22:32:11.609Z,84.43
2023-02-28T22:34:40.459Z,74.20
2023-02-28T22:37:10.903Z,77.57
2023-02-28T22:39:39.820Z,69.00
2023-02-28T22:42:09.996Z,67.83
2023-02-28T22:44:39.088Z,77.60
2023-02-28T22:47:08.436Z,71.10
2023-02-28T22:49:43.297Z,67.30
2023-02-28T22:52:13.616Z,75.53
2023-02-28T22:54:42.601Z,74.53
2023-02-28T22:57:12.769Z,70.93
2023-02-28T22:59:41.605Z,74.50
2023-02-28T23:02:10.673Z,67.70
2023-02-28T23:04:39.565Z,71.73
2023-02-28T23:07:08.428Z,72.77
2023-02-28T23:09:39.414Z,71.83
2023-02-28T23:12:08.627Z,66.63
2023-02-28T23:14:37.551Z,59.13
2023-02-28T23:17:06.514Z,69.67
2023-02-28T23:19:35.379Z,72.00
2023-02-28T23:22:05.867Z,64.07
2023-02-28T23:24:36.902Z,65.10
2023-02-28T23:27:12.770Z,145.60
2023-02-28T23:29:42.370Z,117.07
2023-02-28T23:32:11.373Z,92.83
2023-02-28T23:34:40.327Z,99.47
2023-02-28T23:37:09.766Z,125.43
2023-02-28T23:39:38.680Z,139.50
2023-02-28T23:42:09.074Z,120.90
2023-02-28T23:44:38.006Z,130.93
2023-02-28T23:47:06.896Z,118.03
2023-02-28T23:49:35.867Z,152.10
2023-02-28T23:52:05.813Z,138.23
2023-02-28T23:54:34.894Z,161.67
2023-02-28T23:57:03.747Z,77.20
2023-02-28T23:59:34.011Z,55.70
